Hauptseite
METAR-TAF:

METAR-TAF

Flughäfen :

Tarawa, Kiribati

Flughafen Bonriki

Breite: 01-21N, Länge: 172-55E, Höhe: 2 m

Beobachtung

Neuester Wetterbericht von vor 26 Minuten, um 02:00 UTC
Wind 13 kt aus Ost/Nordost
Temperatur 31°C
Luftfeuchtigkeit 71%
Luftdruck 1011 hPa
Sichtweite 10 km oder mehr
Leicht bewölkt in der Höhe von 2000 ft

METAR: NGTA 230200Z 07013KT 9999 FEW020 31/25 Q1011

Zeit: 16:26 (02:26 UTC)

Prognose

Neuester Wetterbericht von vor 3 Stunden und 12 Minuten, um 23:14 UTC
Gültige Prognose vom 23 um 00 UTC bis 23 um 24 UTC
Wind 12 kt aus Ost
Sichtweite 10 km oder mehr
Leicht bewölkt in der Höhe von 1800 ft

TAF: NGTA 222314Z 2300/2324 08012KT 9999 FEW018

Wetterbeobachtungen und Prognosen von mehr als 4000 Flughäfen (METAR und TAF Bericht).

Die verfügbaren Stationen werden durch gelbe und rote Markierungen auf der Karte dargestellt.

Führen Sie die Maus auf sie, um den Namen der Station zu sehen.

Darauf klicken, um die Beobachtung von Wetterbeobachtungen und Prognosen zu sehen.

Um die Karte zu ändern : klicken Sie auf den grünen Tasten mit einem schwarzen Kreuz Zum Vergrößern, auf den grünen Button mit einem Gedankenstrich zu verkleinern, oder auf die grünen Pfeile für benachbarte Karten.


METAR-TAF: